KSHR

Sheridan County Airport

Sheridan, Wyoming, USA
KSHR 221123Z 2212/2312 VRB03KT P6SM SCT200 FM221300 VRB03KT P6SM SCT200 WS014/27032KT FM221700 27008KT P6SM SCT200 FM230300 VRB03KT P6SM SKC FM230900 36005KT P6SM SCT150
Issued Valid From Valid To
Sep-22 @ 11:23 UTC
(4 hours ago)
Sep-22 @ 12:00 UTC
(4 hours ago)
Sep-23 @ 12:00 UTC
(in 20 hours)
to
to
to
to
to
KSHR 221123Z 2212/2312 VRB03KT P6SM SCT200 FM221300 VRB03KT P6SM SCT200 WS014/27032KT FM221700 27008KT P6SM SCT200 FM230300 VRB03KT P6SM SKC FM230900 36005KT P6SM SCT150
Issued Sep-22 @ 11:23 UTC
(4 hours ago)
Valid From Sep-22 @ 12:00 UTC
(4 hours ago)
Valid To Sep-23 @ 12:00 UTC
(in 20 hours)
-
-
-
-
-